sensor_id;sensor_type;location;lat;lon;timestamp;pressure;altitude;pressure_sealevel;temperature;humidity
46430;BME280;32131;53.454;-6.180;2023-01-28T00:02:13;103224.97;;;3.19;84.65
46430;BME280;32131;53.454;-6.180;2023-01-28T00:04:43;103219.75;;;3.17;84.68
46430;BME280;32131;53.454;-6.180;2023-01-28T00:07:11;103231.59;;;3.17;84.91
46430;BME280;32131;53.454;-6.180;2023-01-28T00:09:39;103223.44;;;3.21;84.86
46430;BME280;32131;53.454;-6.180;2023-01-28T00:12:09;103208.38;;;3.24;84.76
46430;BME280;32131;53.454;-6.180;2023-01-28T00:14:37;103213.25;;;3.31;84.82
46430;BME280;32131;53.454;-6.180;2023-01-28T00:17:06;103197.94;;;3.31;84.42
46430;BME280;32131;53.454;-6.180;2023-01-28T00:19:34;103202.78;;;3.28;84.46
46430;BME280;32131;53.454;-6.180;2023-01-28T00:22:02;103193.56;;;3.20;84.73
46430;BME280;32131;53.454;-6.180;2023-01-28T00:24:31;103197.13;;;3.11;85.09
46430;BME280;32131;53.454;-6.180;2023-01-28T00:26:59;103200.41;;;3.00;85.31
46430;BME280;32131;53.454;-6.180;2023-01-28T00:29:29;103196.06;;;2.89;85.69
46430;BME280;32131;53.454;-6.180;2023-01-28T00:31:57;103195.50;;;2.82;86.01
46430;BME280;32131;53.454;-6.180;2023-01-28T00:34:25;103205.47;;;2.79;86.32
46430;BME280;32131;53.454;-6.180;2023-01-28T00:36:53;103205.72;;;2.82;86.17
46430;BME280;32131;53.454;-6.180;2023-01-28T00:39:24;103214.53;;;2.86;85.99
46430;BME280;32131;53.454;-6.180;2023-01-28T00:41:53;103212.38;;;2.80;86.12
46430;BME280;32131;53.454;-6.180;2023-01-28T00:44:21;103214.13;;;2.81;86.20
46430;BME280;32131;53.454;-6.180;2023-01-28T00:46:51;103202.50;;;2.75;86.43
46430;BME280;32131;53.454;-6.180;2023-01-28T00:49:19;103197.00;;;2.70;86.66
46430;BME280;32131;53.454;-6.180;2023-01-28T00:51:48;103197.50;;;2.66;86.76
46430;BME280;32131;53.454;-6.180;2023-01-28T00:54:16;103188.81;;;2.64;86.87
46430;BME280;32131;53.454;-6.180;2023-01-28T00:56:44;103179.22;;;2.61;86.79
46430;BME280;32131;53.454;-6.180;2023-01-28T00:59:12;103184.97;;;2.59;87.07
46430;BME280;32131;53.454;-6.180;2023-01-28T01:01:41;103183.16;;;2.58;87.23
46430;BME280;32131;53.454;-6.180;2023-01-28T01:04:10;103180.78;;;2.59;87.30
46430;BME280;32131;53.454;-6.180;2023-01-28T01:06:39;103184.59;;;2.64;87.17
46430;BME280;32131;53.454;-6.180;2023-01-28T01:09:10;103182.09;;;2.75;86.99
46430;BME280;32131;53.454;-6.180;2023-01-28T01:11:42;103171.78;;;2.83;86.91
46430;BME280;32131;53.454;-6.180;2023-01-28T01:14:14;103172.84;;;2.96;86.47
46430;BME280;32131;53.454;-6.180;2023-01-28T01:16:42;103167.88;;;3.08;86.21
46430;BME280;32131;53.454;-6.180;2023-01-28T01:19:15;103159.47;;;3.19;85.96
46430;BME280;32131;53.454;-6.180;2023-01-28T01:21:44;103157.69;;;3.28;85.72
46430;BME280;32131;53.454;-6.180;2023-01-28T01:24:16;103154.00;;;3.35;85.54
46430;BME280;32131;53.454;-6.180;2023-01-28T01:26:46;103155.13;;;3.39;85.52
46430;BME280;32131;53.454;-6.180;2023-01-28T01:29:14;103151.06;;;3.41;85.43
46430;BME280;32131;53.454;-6.180;2023-01-28T01:31:43;103148.50;;;3.41;85.49
46430;BME280;32131;53.454;-6.180;2023-01-28T01:34:11;103148.50;;;3.41;85.51
46430;BME280;32131;53.454;-6.180;2023-01-28T01:36:40;103143.28;;;3.39;85.59
46430;BME280;32131;53.454;-6.180;2023-01-28T01:39:11;103140.84;;;3.41;85.55
46430;BME280;32131;53.454;-6.180;2023-01-28T01:41:39;103144.53;;;3.44;85.62
46430;BME280;32131;53.454;-6.180;2023-01-28T01:47:09;103143.25;;;3.50;85.31
46430;BME280;32131;53.454;-6.180;2023-01-28T01:49:38;103144.28;;;3.52;85.17
46430;BME280;32131;53.454;-6.180;2023-01-28T01:52:10;103149.50;;;3.53;85.16
46430;BME280;32131;53.454;-6.180;2023-01-28T01:54:41;103146.19;;;3.54;85.30
46430;BME280;32131;53.454;-6.180;2023-01-28T01:57:15;103147.22;;;3.56;85.26
46430;BME280;32131;53.454;-6.180;2023-01-28T01:59:44;103143.78;;;3.56;85.24
46430;BME280;32131;53.454;-6.180;2023-01-28T02:02:12;103148.09;;;3.57;85.36
46430;BME280;32131;53.454;-6.180;2023-01-28T02:04:43;103147.97;;;3.55;85.81
46430;BME280;32131;53.454;-6.180;2023-01-28T02:07:15;103155.53;;;3.54;86.06
46430;BME280;32131;53.454;-6.180;2023-01-28T02:09:45;103165.00;;;3.55;86.30
46430;BME280;32131;53.454;-6.180;2023-01-28T02:12:16;103170.47;;;3.59;86.57
46430;BME280;32131;53.454;-6.180;2023-01-28T02:14:51;103175.06;;;3.64;86.88
46430;BME280;32131;53.454;-6.180;2023-01-28T02:17:23;103170.31;;;3.68;87.24
46430;BME280;32131;53.454;-6.180;2023-01-28T02:19:55;103164.56;;;3.71;87.85
46430;BME280;32131;53.454;-6.180;2023-01-28T02:28:38;103170.81;;;3.74;89.39
46430;BME280;32131;53.454;-6.180;2023-01-28T02:31:14;103178.38;;;3.73;89.69
46430;BME280;32131;53.454;-6.180;2023-01-28T02:33:48;103188.34;;;3.70;90.24
46430;BME280;32131;53.454;-6.180;2023-01-28T02:36:28;103192.44;;;3.68;90.41
46430;BME280;32131;53.454;-6.180;2023-01-28T02:39:02;103199.19;;;3.67;91.05
46430;BME280;32131;53.454;-6.180;2023-01-28T02:41:36;103202.78;;;3.69;91.49
46430;BME280;32131;53.454;-6.180;2023-01-28T02:44:07;103189.91;;;3.68;92.17
46430;BME280;32131;53.454;-6.180;2023-01-28T02:46:36;103180.16;;;3.64;92.73
46430;BME280;32131;53.454;-6.180;2023-01-28T02:49:25;103158.59;;;3.60;93.27
46430;BME280;32131;53.454;-6.180;2023-01-28T02:52:16;103157.59;;;3.48;94.17
46430;BME280;32131;53.454;-6.180;2023-01-28T02:54:53;103158.34;;;3.36;94.95
46430;BME280;32131;53.454;-6.180;2023-01-28T02:57:31;103149.03;;;3.26;96.24
46430;BME280;32131;53.454;-6.180;2023-01-28T03:00:08;103144.03;;;3.18;97.06
46430;BME280;32131;53.454;-6.180;2023-01-28T03:02:43;103137.13;;;3.17;98.17
46430;BME280;32131;53.454;-6.180;2023-01-28T03:05:19;103148.47;;;3.20;98.38
46430;BME280;32131;53.454;-6.180;2023-01-28T03:07:51;103146.06;;;3.22;98.26
46430;BME280;32131;53.454;-6.180;2023-01-28T03:10:21;103137.38;;;3.20;98.76
46430;BME280;32131;53.454;-6.180;2023-01-28T03:12:50;103136.09;;;3.25;99.61
46430;BME280;32131;53.454;-6.180;2023-01-28T03:15:40;103127.03;;;3.28;99.32
46430;BME280;32131;53.454;-6.180;2023-01-28T03:18:31;103121.78;;;3.17;99.74
46430;BME280;32131;53.454;-6.180;2023-01-28T03:21:21;103125.53;;;3.10;100.00
46430;BME280;32131;53.454;-6.180;2023-01-28T03:24:13;103123.97;;;3.02;100.00
46430;BME280;32131;53.454;-6.180;2023-01-28T03:27:04;103125.00;;;2.93;100.00
46430;BME280;32131;53.454;-6.180;2023-01-28T03:29:53;103142.97;;;2.95;100.00
46430;BME280;32131;53.454;-6.180;2023-01-28T03:32:42;103147.56;;;2.99;100.00
46430;BME280;32131;53.454;-6.180;2023-01-28T03:35:31;103161.47;;;3.03;100.00
46430;BME280;32131;53.454;-6.180;2023-01-28T03:38:19;103171.47;;;3.10;100.00
46430;BME280;32131;53.454;-6.180;2023-01-28T03:40:54;103158.47;;;3.17;100.00
46430;BME280;32131;53.454;-6.180;2023-01-28T03:43:23;103156.53;;;3.25;100.00
46430;BME280;32131;53.454;-6.180;2023-01-28T03:45:51;103158.81;;;3.32;100.00
46430;BME280;32131;53.454;-6.180;2023-01-28T03:48:24;103147.34;;;3.37;100.00
46430;BME280;32131;53.454;-6.180;2023-01-28T03:50:54;103148.00;;;3.35;100.00
46430;BME280;32131;53.454;-6.180;2023-01-28T03:53:22;103138.41;;;3.32;100.00
46430;BME280;32131;53.454;-6.180;2023-01-28T03:55:52;103138.41;;;3.32;100.00
46430;BME280;32131;53.454;-6.180;2023-01-28T03:58:20;103139.31;;;3.33;100.00
46430;BME280;32131;53.454;-6.180;2023-01-28T04:00:49;103144.81;;;3.37;100.00
46430;BME280;32131;53.454;-6.180;2023-01-28T04:03:19;103158.06;;;3.43;100.00
46430;BME280;32131;53.454;-6.180;2023-01-28T04:05:58;103149.91;;;3.48;100.00
46430;BME280;32131;53.454;-6.180;2023-01-28T04:08:27;103149.50;;;3.53;100.00
46430;BME280;32131;53.454;-6.180;2023-01-28T04:10:55;103150.91;;;3.60;100.00
46430;BME280;32131;53.454;-6.180;2023-01-28T04:13:23;103136.88;;;3.65;100.00
46430;BME280;32131;53.454;-6.180;2023-01-28T04:15:51;103137.22;;;3.70;100.00
46430;BME280;32131;53.454;-6.180;2023-01-28T04:18:20;103140.03;;;3.73;100.00
46430;BME280;32131;53.454;-6.180;2023-01-28T04:20:53;103134.44;;;3.77;100.00
46430;BME280;32131;53.454;-6.180;2023-01-28T04:23:22;103133.03;;;3.81;100.00
46430;BME280;32131;53.454;-6.180;2023-01-28T04:25:50;103127.13;;;3.82;100.00
46430;BME280;32131;53.454;-6.180;2023-01-28T04:28:19;103134.16;;;3.84;100.00
46430;BME280;32131;53.454;-6.180;2023-01-28T04:30:47;103142.97;;;3.88;100.00
46430;BME280;32131;53.454;-6.180;2023-01-28T04:33:16;103137.84;;;3.88;100.00
46430;BME280;32131;53.454;-6.180;2023-01-28T04:35:44;103141.56;;;3.91;100.00
46430;BME280;32131;53.454;-6.180;2023-01-28T04:38:12;103138.09;;;3.91;100.00
46430;BME280;32131;53.454;-6.180;2023-01-28T04:40:42;103149.59;;;3.96;100.00
46430;BME280;32131;53.454;-6.180;2023-01-28T04:43:10;103155.72;;;3.98;100.00
46430;BME280;32131;53.454;-6.180;2023-01-28T04:45:38;103159.94;;;3.98;100.00
46430;BME280;32131;53.454;-6.180;2023-01-28T04:48:07;103165.16;;;3.99;100.00
46430;BME280;32131;53.454;-6.180;2023-01-28T04:50:35;103164.41;;;4.00;100.00
46430;BME280;32131;53.454;-6.180;2023-01-28T04:53:03;103166.06;;;4.00;100.00
46430;BME280;32131;53.454;-6.180;2023-01-28T04:55:31;103158.28;;;3.98;100.00
46430;BME280;32131;53.454;-6.180;2023-01-28T04:58:01;103158.16;;;3.97;100.00
46430;BME280;32131;53.454;-6.180;2023-01-28T05:00:29;103157.25;;;3.96;100.00
46430;BME280;32131;53.454;-6.180;2023-01-28T05:02:57;103161.72;;;3.99;100.00
46430;BME280;32131;53.454;-6.180;2023-01-28T05:05:26;103169.41;;;3.99;100.00
46430;BME280;32131;53.454;-6.180;2023-01-28T05:07:55;103171.06;;;3.98;100.00
46430;BME280;32131;53.454;-6.180;2023-01-28T05:10:24;103163.41;;;3.98;100.00
46430;BME280;32131;53.454;-6.180;2023-01-28T05:12:53;103167.72;;;3.99;100.00
46430;BME280;32131;53.454;-6.180;2023-01-28T05:15:22;103174.63;;;4.00;100.00
46430;BME280;32131;53.454;-6.180;2023-01-28T05:17:53;103174.63;;;4.00;100.00
46430;BME280;32131;53.454;-6.180;2023-01-28T05:20:22;103183.31;;;4.02;100.00
46430;BME280;32131;53.454;-6.180;2023-01-28T05:22:51;103180.75;;;4.02;100.00
46430;BME280;32131;53.454;-6.180;2023-01-28T05:25:19;103186.13;;;4.05;100.00
46430;BME280;32131;53.454;-6.180;2023-01-28T05:27:49;103184.47;;;4.06;100.00
46430;BME280;32131;53.454;-6.180;2023-01-28T05:30:18;103188.81;;;4.07;100.00
46430;BME280;32131;53.454;-6.180;2023-01-28T05:32:48;103183.81;;;4.08;100.00
46430;BME280;32131;53.454;-6.180;2023-01-28T05:35:16;103185.09;;;4.14;100.00
46430;BME280;32131;53.454;-6.180;2023-01-28T05:37:45;103180.75;;;4.13;100.00
46430;BME280;32131;53.454;-6.180;2023-01-28T05:40:13;103184.34;;;4.15;100.00
46430;BME280;32131;53.454;-6.180;2023-01-28T05:42:42;103177.44;;;4.14;100.00
46430;BME280;32131;53.454;-6.180;2023-01-28T05:45:10;103185.59;;;4.09;100.00
46430;BME280;32131;53.454;-6.180;2023-01-28T05:47:39;103182.03;;;4.07;100.00
46430;BME280;32131;53.454;-6.180;2023-01-28T05:50:13;103178.22;;;4.02;100.00
46430;BME280;32131;53.454;-6.180;2023-01-28T05:52:42;103173.75;;;4.00;100.00
46430;BME280;32131;53.454;-6.180;2023-01-28T05:55:11;103159.06;;;3.97;100.00
46430;BME280;32131;53.454;-6.180;2023-01-28T05:57:39;103162.75;;;3.90;100.00
46430;BME280;32131;53.454;-6.180;2023-01-28T06:00:09;103164.31;;;3.78;100.00
46430;BME280;32131;53.454;-6.180;2023-01-28T06:02:37;103166.50;;;3.63;100.00
46430;BME280;32131;53.454;-6.180;2023-01-28T06:05:06;103163.94;;;3.53;100.00
46430;BME280;32131;53.454;-6.180;2023-01-28T06:07:36;103161.66;;;3.45;100.00
46430;BME280;32131;53.454;-6.180;2023-01-28T06:10:05;103158.06;;;3.43;100.00
46430;BME280;32131;53.454;-6.180;2023-01-28T06:12:33;103170.34;;;3.48;100.00
46430;BME280;32131;53.454;-6.180;2023-01-28T06:15:02;103167.38;;;3.53;100.00
46430;BME280;32131;53.454;-6.180;2023-01-28T06:17:30;103174.19;;;3.63;100.00
46430;BME280;32131;53.454;-6.180;2023-01-28T06:19:58;103168.53;;;3.67;100.00
46430;BME280;32131;53.454;-6.180;2023-01-28T06:22:27;103159.59;;;3.72;100.00
46430;BME280;32131;53.454;-6.180;2023-01-28T06:24:56;103169.31;;;3.76;100.00
46430;BME280;32131;53.454;-6.180;2023-01-28T06:27:24;103162.78;;;3.80;100.00
46430;BME280;32131;53.454;-6.180;2023-01-28T06:29:53;103166.34;;;3.82;100.00
46430;BME280;32131;53.454;-6.180;2023-01-28T06:32:21;103151.78;;;3.81;100.00
46430;BME280;32131;53.454;-6.180;2023-01-28T06:34:49;103158.19;;;3.76;100.00
46430;BME280;32131;53.454;-6.180;2023-01-28T06:37:18;103156.91;;;3.71;100.00
46430;BME280;32131;53.454;-6.180;2023-01-28T06:39:46;103146.94;;;3.64;100.00
46430;BME280;32131;53.454;-6.180;2023-01-28T06:42:16;103154.75;;;3.65;100.00
46430;BME280;32131;53.454;-6.180;2023-01-28T06:44:44;103162.44;;;3.65;100.00
46430;BME280;32131;53.454;-6.180;2023-01-28T06:47:12;103153.22;;;3.67;100.00
46430;BME280;32131;53.454;-6.180;2023-01-28T06:49:41;103152.44;;;3.68;100.00
46430;BME280;32131;53.454;-6.180;2023-01-28T06:52:09;103154.34;;;3.71;100.00
46430;BME280;32131;53.454;-6.180;2023-01-28T06:54:37;103141.06;;;3.75;100.00
46430;BME280;32131;53.454;-6.180;2023-01-28T06:57:06;103137.47;;;3.83;100.00
46430;BME280;32131;53.454;-6.180;2023-01-28T06:59:36;103131.84;;;3.87;100.00
46430;BME280;32131;53.454;-6.180;2023-01-28T07:02:04;103134.75;;;3.92;100.00
46430;BME280;32131;53.454;-6.180;2023-01-28T07:04:32;103142.94;;;3.98;100.00
46430;BME280;32131;53.454;-6.180;2023-01-28T07:07:01;103146.50;;;4.00;100.00
46430;BME280;32131;53.454;-6.180;2023-01-28T07:09:29;103145.88;;;4.03;100.00
46430;BME280;32131;53.454;-6.180;2023-01-28T07:11:57;103139.09;;;4.03;100.00
46430;BME280;32131;53.454;-6.180;2023-01-28T07:14:26;103134.84;;;4.04;100.00
46430;BME280;32131;53.454;-6.180;2023-01-28T07:16:55;103126.31;;;4.03;100.00
46430;BME280;32131;53.454;-6.180;2023-01-28T07:19:23;103129.13;;;4.06;100.00
46430;BME280;32131;53.454;-6.180;2023-01-28T07:21:52;103125.00;;;4.08;100.00
46430;BME280;32131;53.454;-6.180;2023-01-28T07:24:23;103122.69;;;4.12;100.00
46430;BME280;32131;53.454;-6.180;2023-01-28T07:26:51;103136.50;;;4.14;100.00
46430;BME280;32131;53.454;-6.180;2023-01-28T07:29:20;103142.63;;;4.16;100.00
46430;BME280;32131;53.454;-6.180;2023-01-28T07:31:48;103149.91;;;4.21;100.00
46430;BME280;32131;53.454;-6.180;2023-01-28T07:34:18;103156.03;;;4.23;100.00
46430;BME280;32131;53.454;-6.180;2023-01-28T07:36:46;103147.69;;;4.26;100.00
46430;BME280;32131;53.454;-6.180;2023-01-28T07:39:14;103139.25;;;4.27;100.00
46430;BME280;32131;53.454;-6.180;2023-01-28T07:41:43;103147.97;;;4.29;100.00
46430;BME280;32131;53.454;-6.180;2023-01-28T07:44:11;103142.06;;;4.30;100.00
46430;BME280;32131;53.454;-6.180;2023-01-28T07:46:39;103139.53;;;4.30;100.00
46430;BME280;32131;53.454;-6.180;2023-01-28T07:49:07;103141.94;;;4.29;100.00
46430;BME280;32131;53.454;-6.180;2023-01-28T07:51:37;103142.06;;;4.30;100.00
46430;BME280;32131;53.454;-6.180;2023-01-28T07:54:05;103142.19;;;4.32;100.00
46430;BME280;32131;53.454;-6.180;2023-01-28T07:56:33;103148.31;;;4.34;100.00
46430;BME280;32131;53.454;-6.180;2023-01-28T07:59:02;103145.00;;;4.35;100.00
46430;BME280;32131;53.454;-6.180;2023-01-28T08:01:30;103145.13;;;4.36;100.00
46430;BME280;32131;53.454;-6.180;2023-01-28T08:03:58;103140.38;;;4.41;100.00
46430;BME280;32131;53.454;-6.180;2023-01-28T08:06:27;103147.38;;;4.44;100.00
46430;BME280;32131;53.454;-6.180;2023-01-28T08:08:57;103142.25;;;4.44;100.00
46430;BME280;32131;53.454;-6.180;2023-01-28T08:11:25;103152.97;;;4.50;100.00
46430;BME280;32131;53.454;-6.180;2023-01-28T08:13:53;103158.34;;;4.53;100.00
46430;BME280;32131;53.454;-6.180;2023-01-28T08:16:21;103168.06;;;4.57;100.00
46430;BME280;32131;53.454;-6.180;2023-01-28T08:18:50;103164.09;;;4.61;100.00
46430;BME280;32131;53.454;-6.180;2023-01-28T08:21:22;103177.25;;;4.65;100.00
46430;BME280;32131;53.454;-6.180;2023-01-28T08:23:51;103173.13;;;4.67;100.00
46430;BME280;32131;53.454;-6.180;2023-01-28T08:26:21;103178.75;;;4.74;100.00
46430;BME280;32131;53.454;-6.180;2023-01-28T08:28:50;103178.97;;;4.77;100.00
46430;BME280;32131;53.454;-6.180;2023-01-28T08:31:19;103184.53;;;4.83;100.00
46430;BME280;32131;53.454;-6.180;2023-01-28T08:33:47;103175.31;;;4.85;100.00
46430;BME280;32131;53.454;-6.180;2023-01-28T08:36:15;103186.94;;;4.92;100.00
46430;BME280;32131;53.454;-6.180;2023-01-28T08:38:44;103180.28;;;4.94;100.00
46430;BME280;32131;53.454;-6.180;2023-01-28T08:41:12;103185.78;;;4.98;100.00
46430;BME280;32131;53.454;-6.180;2023-01-28T08:43:42;103197.13;;;5.02;100.00
46430;BME280;32131;53.454;-6.180;2023-01-28T08:46:10;103184.69;;;5.07;100.00
46430;BME280;32131;53.454;-6.180;2023-01-28T08:48:38;103188.50;;;5.12;100.00
46430;BME280;32131;53.454;-6.180;2023-01-28T08:51:06;103183.47;;;5.13;100.00
46430;BME280;32131;53.454;-6.180;2023-01-28T08:53:39;103186.28;;;5.16;100.00
46430;BME280;32131;53.454;-6.180;2023-01-28T08:56:10;103187.81;;;5.14;100.00
46430;BME280;32131;53.454;-6.180;2023-01-28T08:58:40;103178.25;;;5.12;100.00
46430;BME280;32131;53.454;-6.180;2023-01-28T09:01:09;103178.25;;;5.12;100.00
46430;BME280;32131;53.454;-6.180;2023-01-28T09:03:38;103179.13;;;5.12;100.00
46430;BME280;32131;53.454;-6.180;2023-01-28T09:06:06;103180.50;;;5.19;100.00
46430;BME280;32131;53.454;-6.180;2023-01-28T09:08:35;103177.41;;;5.23;100.00
46430;BME280;32131;53.454;-6.180;2023-01-28T09:11:03;103176.75;;;5.26;100.00
46430;BME280;32131;53.454;-6.180;2023-01-28T09:13:32;103175.00;;;5.37;100.00
46430;BME280;32131;53.454;-6.180;2023-01-28T09:16:00;103187.50;;;5.56;100.00
46430;BME280;32131;53.454;-6.180;2023-01-28T09:18:32;103191.34;;;5.73;100.00
46430;BME280;32131;53.454;-6.180;2023-01-28T09:21:05;103189.47;;;5.82;100.00
46430;BME280;32131;53.454;-6.180;2023-01-28T09:23:34;103196.72;;;5.88;100.00
46430;BME280;32131;53.454;-6.180;2023-01-28T09:26:03;103182.47;;;5.91;100.00
46430;BME280;32131;53.454;-6.180;2023-01-28T09:28:54;103185.94;;;6.04;100.00
46430;BME280;32131;53.454;-6.180;2023-01-28T09:31:23;103188.53;;;6.04;100.00
46430;BME280;32131;53.454;-6.180;2023-01-28T09:33:53;103185.41;;;6.08;100.00
46430;BME280;32131;53.454;-6.180;2023-01-28T09:36:23;103190.97;;;6.14;100.00
46430;BME280;32131;53.454;-6.180;2023-01-28T09:38:51;103195.53;;;6.18;100.00
46430;BME280;32131;53.454;-6.180;2023-01-28T09:41:35;103194.91;;;6.21;100.00
46430;BME280;32131;53.454;-6.180;2023-01-28T09:44:23;103200.78;;;6.32;100.00
46430;BME280;32131;53.454;-6.180;2023-01-28T09:47:00;103207.91;;;6.36;100.00
46430;BME280;32131;53.454;-6.180;2023-01-28T09:49:37;103206.94;;;6.34;100.00
46430;BME280;32131;53.454;-6.180;2023-01-28T09:52:12;103202.78;;;6.36;100.00
46430;BME280;32131;53.454;-6.180;2023-01-28T09:54:45;103216.28;;;6.33;100.00
46430;BME280;32131;53.454;-6.180;2023-01-28T09:57:36;103211.84;;;6.31;100.00
46430;BME280;32131;53.454;-6.180;2023-01-28T10:00:12;103221.31;;;6.32;100.00
46430;BME280;32131;53.454;-6.180;2023-01-28T10:02:55;103216.28;;;6.33;100.00
46430;BME280;32131;53.454;-6.180;2023-01-28T10:05:33;103215.75;;;6.37;100.00
46430;BME280;32131;53.454;-6.180;2023-01-28T10:08:21;103224.44;;;6.39;100.00
46430;BME280;32131;53.454;-6.180;2023-01-28T10:11:05;103233.81;;;6.39;100.00
46430;BME280;32131;53.454;-6.180;2023-01-28T10:13:50;103236.94;;;6.35;100.00
46430;BME280;32131;53.454;-6.180;2023-01-28T10:16:27;103242.88;;;6.34;100.00
46430;BME280;32131;53.454;-6.180;2023-01-28T10:19:13;103245.44;;;6.34;100.00
46430;BME280;32131;53.454;-6.180;2023-01-28T10:22:18;103247.19;;;6.35;100.00
46430;BME280;32131;53.454;-6.180;2023-01-28T10:25:04;103237.59;;;6.32;100.00
46430;BME280;32131;53.454;-6.180;2023-01-28T10:27:36;103244.41;;;6.32;100.00
46430;BME280;32131;53.454;-6.180;2023-01-28T10:30:16;103244.75;;;6.36;100.00
46430;BME280;32131;53.454;-6.180;2023-01-28T10:32:51;103250.66;;;6.47;100.00
46430;BME280;32131;53.454;-6.180;2023-01-28T10:35:20;103258.59;;;6.62;100.00
46430;BME280;32131;53.454;-6.180;2023-01-28T10:37:56;103247.84;;;6.80;100.00
46430;BME280;32131;53.454;-6.180;2023-01-28T10:40:27;103250.41;;;6.91;100.00
46430;BME280;32131;53.454;-6.180;2023-01-28T10:42:56;103239.31;;;7.04;100.00
46430;BME280;32131;53.454;-6.180;2023-01-28T10:45:27;103236.69;;;7.16;100.00
46430;BME280;32131;53.454;-6.180;2023-01-28T10:48:01;103243.25;;;7.24;100.00
46430;BME280;32131;53.454;-6.180;2023-01-28T10:50:31;103234.53;;;7.22;100.00
46430;BME280;32131;53.454;-6.180;2023-01-28T10:53:04;103237.66;;;7.18;100.00
46430;BME280;32131;53.454;-6.180;2023-01-28T10:55:37;103233.69;;;7.10;100.00
46430;BME280;32131;53.454;-6.180;2023-01-28T11:01:41;103229.78;;;7.15;100.00
46430;BME280;32131;53.454;-6.180;2023-01-28T11:04:17;103215.97;;;7.27;100.00
46430;BME280;32131;53.454;-6.180;2023-01-28T11:06:55;103208.69;;;7.33;100.00
46430;BME280;32131;53.454;-6.180;2023-01-28T11:09:27;103211.22;;;7.45;100.00
46430;BME280;32131;53.454;-6.180;2023-01-28T11:11:57;103207.56;;;7.54;100.00
46430;BME280;32131;53.454;-6.180;2023-01-28T11:14:26;103196.13;;;7.63;100.00
46430;BME280;32131;53.454;-6.180;2023-01-28T11:16:56;103184.47;;;7.81;99.75
46430;BME280;32131;53.454;-6.180;2023-01-28T11:19:34;103177.38;;;7.91;98.81
46430;BME280;32131;53.454;-6.180;2023-01-28T11:22:03;103189.44;;;8.05;98.52
46430;BME280;32131;53.454;-6.180;2023-01-28T11:25:57;103184.59;;;8.10;98.27
46430;BME280;32131;53.454;-6.180;2023-01-28T11:27:39;103180.75;;;8.16;97.96
46430;BME280;32131;53.454;-6.180;2023-01-28T11:30:23;103178.75;;;8.39;97.60
46430;BME280;32131;53.454;-6.180;2023-01-28T11:33:12;103179.38;;;8.48;97.20
46430;BME280;32131;53.454;-6.180;2023-01-28T11:36:02;103184.50;;;8.48;96.75
46430;BME280;32131;53.454;-6.180;2023-01-28T11:38:32;103186.38;;;8.38;97.07
46430;BME280;32131;53.454;-6.180;2023-01-28T11:41:02;103196.19;;;8.43;97.01
46430;BME280;32131;53.454;-6.180;2023-01-28T11:43:31;103198.25;;;8.49;96.82
46430;BME280;32131;53.454;-6.180;2023-01-28T11:46:19;103190.13;;;8.43;96.33
46430;BME280;32131;53.454;-6.180;2023-01-28T11:48:56;103198.97;;;8.33;96.55
46430;BME280;32131;53.454;-6.180;2023-01-28T11:51:37;103189.75;;;8.10;97.16
46430;BME280;32131;53.454;-6.180;2023-01-28T11:54:18;103194.59;;;7.92;97.99
46430;BME280;32131;53.454;-6.180;2023-01-28T11:56:58;103195.84;;;7.71;98.49
46430;BME280;32131;53.454;-6.180;2023-01-28T12:02:32;103190.88;;;7.61;99.31
46430;BME280;32131;53.454;-6.180;2023-01-28T12:05:28;103184.66;;;7.58;99.39
46430;BME280;32131;53.454;-6.180;2023-01-28T12:08:08;103184.22;;;7.51;99.46
46430;BME280;32131;53.454;-6.180;2023-01-28T12:10:48;103181.63;;;7.51;99.73
46430;BME280;32131;53.454;-6.180;2023-01-28T12:13:43;103180.28;;;7.57;99.93
46430;BME280;32131;53.454;-6.180;2023-01-28T12:19:17;103175.94;;;7.69;99.57
46430;BME280;32131;53.454;-6.180;2023-01-28T12:22:06;103168.22;;;7.69;99.77
46430;BME280;32131;53.454;-6.180;2023-01-28T12:24:54;103161.13;;;7.78;99.60
46430;BME280;32131;53.454;-6.180;2023-01-28T12:27:35;103154.53;;;7.95;99.14
46430;BME280;32131;53.454;-6.180;2023-01-28T12:30:21;103143.31;;;7.95;99.15
46430;BME280;32131;53.454;-6.180;2023-01-28T12:33:04;103141.75;;;7.97;99.33
46430;BME280;32131;53.454;-6.180;2023-01-28T12:35:45;103128.00;;;8.10;99.09
46430;BME280;32131;53.454;-6.180;2023-01-28T12:38:26;103131.19;;;8.06;98.53
46430;BME280;32131;53.454;-6.180;2023-01-28T12:41:10;103132.25;;;8.09;98.95
46430;BME280;32131;53.454;-6.180;2023-01-28T12:43:52;103126.09;;;8.34;98.23
46430;BME280;32131;53.454;-6.180;2023-01-28T12:46:41;103122.09;;;8.39;97.59
46430;BME280;32131;53.454;-6.180;2023-01-28T12:49:41;103126.09;;;8.47;97.23
46430;BME280;32131;53.454;-6.180;2023-01-28T13:13:46;103099.75;;;8.25;96.43
46430;BME280;32131;53.454;-6.180;2023-01-28T13:17:10;103097.91;;;8.22;96.05
46430;BME280;32131;53.454;-6.180;2023-01-28T13:23:25;103105.69;;;8.10;95.89
46430;BME280;32131;53.454;-6.180;2023-01-28T13:26:08;103101.97;;;8.05;96.12
46430;BME280;32131;53.454;-6.180;2023-01-28T13:29:08;103092.28;;;8.01;96.02
46430;BME280;32131;53.454;-6.180;2023-01-28T13:31:38;103104.31;;;8.02;96.26
46430;BME280;32131;53.454;-6.180;2023-01-28T13:34:07;103106.63;;;7.97;96.30
46430;BME280;32131;53.454;-6.180;2023-01-28T13:36:38;103106.44;;;7.94;96.29
46430;BME280;32131;53.454;-6.180;2023-01-28T13:39:17;103093.34;;;7.91;96.34
46430;BME280;32131;53.454;-6.180;2023-01-28T13:41:47;103089.53;;;7.84;95.96
46430;BME280;32131;53.454;-6.180;2023-01-28T13:44:18;103096.13;;;7.81;96.32
46430;BME280;32131;53.454;-6.180;2023-01-28T13:46:46;103089.09;;;7.78;96.30
46430;BME280;32131;53.454;-6.180;2023-01-28T13:49:17;103085.75;;;7.79;96.11
46430;BME280;32131;53.454;-6.180;2023-01-28T13:51:57;103082.00;;;7.74;96.35
46430;BME280;32131;53.454;-6.180;2023-01-28T13:54:27;103084.06;;;7.66;96.32
46430;BME280;32131;53.454;-6.180;2023-01-28T13:57:11;103071.91;;;7.64;96.63